sensor_id;sensor_type;location;lat;lon;timestamp;pressure;altitude;pressure_sealevel;temperature;humidity
3122;BME280;1571;52.524;14.104;2023-02-03T00:01:35;101639.75;;;-0.63;100.00
3122;BME280;1571;52.524;14.104;2023-02-03T00:04:03;101641.50;;;-0.63;100.00
3122;BME280;1571;52.524;14.104;2023-02-03T00:06:32;101638.06;;;-0.74;100.00
3122;BME280;1571;52.524;14.104;2023-02-03T00:09:00;101627.56;;;-0.54;100.00
3122;BME280;1571;52.524;14.104;2023-02-03T00:11:29;101623.22;;;-0.57;100.00
3122;BME280;1571;52.524;14.104;2023-02-03T00:13:59;101610.16;;;-0.45;100.00
3122;BME280;1571;52.524;14.104;2023-02-03T00:16:27;101592.75;;;-0.43;100.00
3122;BME280;1571;52.524;14.104;2023-02-03T00:18:55;101593.63;;;-0.45;100.00
3122;BME280;1571;52.524;14.104;2023-02-03T00:21:24;101586.66;;;-0.48;100.00
3122;BME280;1571;52.524;14.104;2023-02-03T00:23:52;101576.19;;;-0.29;100.00
3122;BME280;1571;52.524;14.104;2023-02-03T00:26:21;101570.09;;;-0.27;100.00
3122;BME280;1571;52.524;14.104;2023-02-03T00:28:50;101560.50;;;-0.20;100.00
3122;BME280;1571;52.524;14.104;2023-02-03T00:31:22;101550.03;;;-0.15;100.00
3122;BME280;1571;52.524;14.104;2023-02-03T00:33:52;101531.69;;;-0.08;100.00
3122;BME280;1571;52.524;14.104;2023-02-03T00:36:21;101522.97;;;-0.04;100.00
3122;BME280;1571;52.524;14.104;2023-02-03T00:38:49;101523.84;;;-0.03;100.00
3122;BME280;1571;52.524;14.104;2023-02-03T00:41:19;101515.09;;;0.04;100.00
3122;BME280;1571;52.524;14.104;2023-02-03T00:43:47;101502.81;;;0.15;100.00
3122;BME280;1571;52.524;14.104;2023-02-03T00:46:16;101497.59;;;0.15;100.00
3122;BME280;1571;52.524;14.104;2023-02-03T00:48:45;101488.78;;;0.32;100.00
3122;BME280;1571;52.524;14.104;2023-02-03T00:51:13;101470.47;;;0.33;100.00
3122;BME280;1571;52.524;14.104;2023-02-03T00:53:42;101457.50;;;0.26;100.00
3122;BME280;1571;52.524;14.104;2023-02-03T00:56:10;101446.97;;;0.33;100.00
3122;BME280;1571;52.524;14.104;2023-02-03T00:58:39;101441.66;;;0.44;100.00
3122;BME280;1571;52.524;14.104;2023-02-03T01:01:08;101459.97;;;0.39;100.00
3122;BME280;1571;52.524;14.104;2023-02-03T01:03:36;101465.16;;;0.43;100.00
3122;BME280;1571;52.524;14.104;2023-02-03T01:06:10;101444.97;;;0.58;100.00
3122;BME280;1571;52.524;14.104;2023-02-03T01:08:40;101445.88;;;0.56;100.00
3122;BME280;1571;52.524;14.104;2023-02-03T01:11:10;101440.59;;;0.62;100.00
3122;BME280;1571;52.524;14.104;2023-02-03T01:13:38;101444.84;;;0.74;100.00
3122;BME280;1571;52.524;14.104;2023-02-03T01:16:08;101451.06;;;0.64;100.00
3122;BME280;1571;52.524;14.104;2023-02-03T01:18:37;101445.72;;;0.73;100.00
3122;BME280;1571;52.524;14.104;2023-02-03T01:21:06;101443.06;;;0.77;100.00
3122;BME280;1571;52.524;14.104;2023-02-03T01:23:37;101442.25;;;0.71;100.00
3122;BME280;1571;52.524;14.104;2023-02-03T01:26:06;101436.81;;;0.89;100.00
3122;BME280;1571;52.524;14.104;2023-02-03T01:28:35;101440.34;;;0.87;100.00
3122;BME280;1571;52.524;14.104;2023-02-03T01:31:11;101438.84;;;0.66;100.00
3122;BME280;1571;52.524;14.104;2023-02-03T01:33:40;101422.22;;;0.73;100.00
3122;BME280;1571;52.524;14.104;2023-02-03T01:36:12;101422.16;;;0.76;100.00
3122;BME280;1571;52.524;14.104;2023-02-03T01:38:43;101430.78;;;0.84;100.00
3122;BME280;1571;52.524;14.104;2023-02-03T01:41:16;101432.72;;;0.67;100.00
3122;BME280;1571;52.524;14.104;2023-02-03T01:43:47;101422.16;;;0.79;100.00
3122;BME280;1571;52.524;14.104;2023-02-03T01:46:28;101422.09;;;0.82;100.00
3122;BME280;1571;52.524;14.104;2023-02-03T01:49:02;101417.03;;;0.68;100.00
3122;BME280;1571;52.524;14.104;2023-02-03T01:51:32;101418.78;;;0.65;100.00
3122;BME280;1571;52.524;14.104;2023-02-03T01:54:03;101418.75;;;0.69;100.00
3122;BME280;1571;52.524;14.104;2023-02-03T01:56:34;101423.88;;;0.80;100.00
3122;BME280;1571;52.524;14.104;2023-02-03T01:59:03;101417.69;;;0.87;100.00
3122;BME280;1571;52.524;14.104;2023-02-03T02:01:33;101402.72;;;0.98;100.00
3122;BME280;1571;52.524;14.104;2023-02-03T02:04:03;101402.97;;;0.78;100.00
3122;BME280;1571;52.524;14.104;2023-02-03T02:06:32;101409.81;;;0.90;100.00
3122;BME280;1571;52.524;14.104;2023-02-03T02:09:03;101401.19;;;0.82;100.00
3122;BME280;1571;52.524;14.104;2023-02-03T02:11:31;101397.38;;;1.09;100.00
3122;BME280;1571;52.524;14.104;2023-02-03T02:14:01;101378.22;;;1.09;100.00
3122;BME280;1571;52.524;14.104;2023-02-03T02:16:40;101362.53;;;1.06;100.00
3122;BME280;1571;52.524;14.104;2023-02-03T02:19:28;101374.53;;;1.22;100.00
3122;BME280;1571;52.524;14.104;2023-02-03T02:22:08;101362.38;;;1.19;100.00
3122;BME280;1571;52.524;14.104;2023-02-03T02:24:52;101352.72;;;1.21;100.00
3122;BME280;1571;52.524;14.104;2023-02-03T02:28:04;101351.94;;;1.15;100.00
3122;BME280;1571;52.524;14.104;2023-02-03T02:30:52;101357.97;;;1.21;100.00
3122;BME280;1571;52.524;14.104;2023-02-03T02:33:35;101346.56;;;1.27;100.00
3122;BME280;1571;52.524;14.104;2023-02-03T02:36:10;101339.63;;;1.23;100.00
3122;BME280;1571;52.524;14.104;2023-02-03T02:38:48;101320.41;;;1.27;100.00
3122;BME280;1571;52.524;14.104;2023-02-03T02:41:22;101320.41;;;1.27;100.00
3122;BME280;1571;52.524;14.104;2023-02-03T02:43:58;101310.00;;;1.24;100.00
3122;BME280;1571;52.524;14.104;2023-02-03T02:46:31;101308.41;;;1.14;100.00
3122;BME280;1571;52.524;14.104;2023-02-03T02:49:06;101301.59;;;1.00;100.00
3122;BME280;1571;52.524;14.104;2023-02-03T02:51:38;101291.84;;;1.13;100.00
3122;BME280;1571;52.524;14.104;2023-02-03T02:54:13;101291.06;;;1.07;100.00
3122;BME280;1571;52.524;14.104;2023-02-03T02:56:44;101289.38;;;1.02;100.00
3122;BME280;1571;52.524;14.104;2023-02-03T02:59:15;101283.94;;;1.15;100.00
3122;BME280;1571;52.524;14.104;2023-02-03T03:01:43;101285.78;;;1.10;100.00
3122;BME280;1571;52.524;14.104;2023-02-03T03:04:15;101282.31;;;1.08;100.00
3122;BME280;1571;52.524;14.104;2023-02-03T03:06:48;101275.38;;;1.07;100.00
3122;BME280;1571;52.524;14.104;2023-02-03T03:09:20;101270.31;;;0.94;100.00
3122;BME280;1571;52.524;14.104;2023-02-03T03:11:55;101252.84;;;0.96;100.00
3122;BME280;1571;52.524;14.104;2023-02-03T03:14:29;101243.22;;;1.00;100.00
3122;BME280;1571;52.524;14.104;2023-02-03T03:17:00;101241.47;;;0.99;100.00
3122;BME280;1571;52.524;14.104;2023-02-03T03:19:36;101250.34;;;0.90;100.00
3122;BME280;1571;52.524;14.104;2023-02-03T03:22:08;101234.75;;;0.82;100.00
3122;BME280;1571;52.524;14.104;2023-02-03T03:24:41;101227.06;;;0.72;100.00
3122;BME280;1571;52.524;14.104;2023-02-03T03:27:14;101218.38;;;0.70;100.00
3122;BME280;1571;52.524;14.104;2023-02-03T03:29:48;101210.31;;;0.87;100.00
3122;BME280;1571;52.524;14.104;2023-02-03T03:32:18;101195.66;;;0.75;100.00
3122;BME280;1571;52.524;14.104;2023-02-03T03:34:48;101187.91;;;0.70;100.00
3122;BME280;1571;52.524;14.104;2023-02-03T03:37:19;101179.09;;;0.74;100.00
3122;BME280;1571;52.524;14.104;2023-02-03T03:39:53;101178.63;;;0.48;100.00
3122;BME280;1571;52.524;14.104;2023-02-03T03:42:26;101167.13;;;0.61;100.00
3122;BME280;1571;52.524;14.104;2023-02-03T03:45:01;101152.31;;;0.61;100.00
3122;BME280;1571;52.524;14.104;2023-02-03T03:47:35;101148.84;;;0.61;100.00
3122;BME280;1571;52.524;14.104;2023-02-03T03:50:10;101148.78;;;0.66;100.00
3122;BME280;1571;52.524;14.104;2023-02-03T03:52:41;101143.75;;;0.50;100.00
3122;BME280;1571;52.524;14.104;2023-02-03T03:55:13;101131.41;;;0.61;100.00
3122;BME280;1571;52.524;14.104;2023-02-03T03:57:45;101123.72;;;0.51;100.00
3122;BME280;1571;52.524;14.104;2023-02-03T04:00:19;101121.59;;;0.76;100.00
3122;BME280;1571;52.524;14.104;2023-02-03T04:02:51;101103.38;;;0.70;100.00
3122;BME280;1571;52.524;14.104;2023-02-03T04:05:23;101099.13;;;0.66;100.00
3122;BME280;1571;52.524;14.104;2023-02-03T04:07:52;101098.97;;;0.73;100.00
3122;BME280;1571;52.524;14.104;2023-02-03T04:10:30;101089.53;;;0.65;100.00
3122;BME280;1571;52.524;14.104;2023-02-03T04:12:58;101087.91;;;0.59;100.00
3122;BME280;1571;52.524;14.104;2023-02-03T04:15:26;101080.06;;;0.57;100.00
3122;BME280;1571;52.524;14.104;2023-02-03T04:17:55;101081.84;;;0.57;100.00
3122;BME280;1571;52.524;14.104;2023-02-03T04:20:25;101064.34;;;0.60;100.00
3122;BME280;1571;52.524;14.104;2023-02-03T04:22:54;101065.16;;;0.64;100.00
3122;BME280;1571;52.524;14.104;2023-02-03T04:25:23;101071.25;;;0.65;100.00
3122;BME280;1571;52.524;14.104;2023-02-03T04:27:53;101084.47;;;0.55;100.00
3122;BME280;1571;52.524;14.104;2023-02-03T04:30:22;101079.38;;;0.46;100.00
3122;BME280;1571;52.524;14.104;2023-02-03T04:32:50;101069.47;;;0.67;100.00
3122;BME280;1571;52.524;14.104;2023-02-03T04:35:19;101066.91;;;0.64;100.00
3122;BME280;1571;52.524;14.104;2023-02-03T04:37:49;101051.94;;;0.75;100.00
3122;BME280;1571;52.524;14.104;2023-02-03T04:40:17;101049.34;;;0.72;100.00
3122;BME280;1571;52.524;14.104;2023-02-03T04:42:46;101047.41;;;0.83;100.00
3122;BME280;1571;52.524;14.104;2023-02-03T04:45:14;101039.63;;;0.80;100.00
3122;BME280;1571;52.524;14.104;2023-02-03T04:47:42;101028.94;;;0.94;100.00
3122;BME280;1571;52.524;14.104;2023-02-03T04:50:10;101032.38;;;0.96;100.00
3122;BME280;1571;52.524;14.104;2023-02-03T04:52:39;101024.44;;;1.00;100.00
3122;BME280;1571;52.524;14.104;2023-02-03T04:55:08;101022.75;;;0.99;100.00
3122;BME280;1571;52.524;14.104;2023-02-03T04:57:36;101003.28;;;1.14;100.00
3122;BME280;1571;52.524;14.104;2023-02-03T05:00:06;100991.88;;;1.18;100.00
3122;BME280;1571;52.524;14.104;2023-02-03T05:02:34;100987.47;;;1.20;100.00
3122;BME280;1571;52.524;14.104;2023-02-03T05:05:03;100987.31;;;1.28;100.00
3122;BME280;1571;52.524;14.104;2023-02-03T05:07:31;100979.34;;;1.34;100.00
3122;BME280;1571;52.524;14.104;2023-02-03T05:09:59;100974.97;;;1.35;100.00
3122;BME280;1571;52.524;14.104;2023-02-03T05:12:29;100982.03;;;1.31;100.00
3122;BME280;1571;52.524;14.104;2023-02-03T05:14:58;100979.09;;;1.47;100.00
3122;BME280;1571;52.524;14.104;2023-02-03T05:17:26;100973.78;;;1.51;100.00
3122;BME280;1571;52.524;14.104;2023-02-03T05:19:54;100981.53;;;1.54;100.00
3122;BME280;1571;52.524;14.104;2023-02-03T05:22:22;100969.38;;;1.52;100.00
3122;BME280;1571;52.524;14.104;2023-02-03T05:24:50;100972.75;;;1.58;100.00
3122;BME280;1571;52.524;14.104;2023-02-03T05:27:19;100960.63;;;1.53;100.00
3122;BME280;1571;52.524;14.104;2023-02-03T05:29:49;100956.09;;;1.62;100.00
3122;BME280;1571;52.524;14.104;2023-02-03T05:32:17;100944.09;;;1.51;100.00
3122;BME280;1571;52.524;14.104;2023-02-03T05:34:45;100945.84;;;1.52;100.00
3122;BME280;1571;52.524;14.104;2023-02-03T05:37:14;100945.50;;;1.67;100.00
3122;BME280;1571;52.524;14.104;2023-02-03T05:39:42;100941.09;;;1.69;100.00
3122;BME280;1571;52.524;14.104;2023-02-03T05:42:10;100944.53;;;1.71;100.00
3122;BME280;1571;52.524;14.104;2023-02-03T05:44:37;100919.00;;;1.81;100.00
3122;BME280;1571;52.524;14.104;2023-02-03T05:47:07;100911.28;;;1.76;100.00
3122;BME280;1571;52.524;14.104;2023-02-03T05:49:48;100914.72;;;1.78;100.00
3122;BME280;1571;52.524;14.104;2023-02-03T05:52:17;100905.00;;;1.83;100.00
3122;BME280;1571;52.524;14.104;2023-02-03T05:54:45;100917.13;;;1.87;100.00
3122;BME280;1571;52.524;14.104;2023-02-03T05:57:13;100902.72;;;2.05;100.00
3122;BME280;1571;52.524;14.104;2023-02-03T05:59:41;100899.31;;;2.02;100.00
3122;BME280;1571;52.524;14.104;2023-02-03T06:02:11;100898.00;;;2.18;100.00
3122;BME280;1571;52.524;14.104;2023-02-03T06:04:39;100879.84;;;2.12;100.00
3122;BME280;1571;52.524;14.104;2023-02-03T06:07:07;100883.00;;;2.25;100.00
3122;BME280;1571;52.524;14.104;2023-02-03T06:09:36;100880.19;;;2.33;100.00
3122;BME280;1571;52.524;14.104;2023-02-03T06:12:05;100888.47;;;2.50;100.00
3122;BME280;1571;52.524;14.104;2023-02-03T06:14:33;100877.81;;;2.56;100.00
3122;BME280;1571;52.524;14.104;2023-02-03T06:17:01;100875.94;;;2.61;100.00
3122;BME280;1571;52.524;14.104;2023-02-03T06:19:31;100887.88;;;2.71;100.00
3122;BME280;1571;52.524;14.104;2023-02-03T06:21:59;100879.72;;;2.82;100.00
3122;BME280;1571;52.524;14.104;2023-02-03T06:24:27;100869.81;;;2.92;100.00
3122;BME280;1571;52.524;14.104;2023-02-03T06:26:56;100867.13;;;2.95;100.00
3122;BME280;1571;52.524;14.104;2023-02-03T06:29:24;100863.50;;;2.99;100.00
3122;BME280;1571;52.524;14.104;2023-02-03T06:31:52;100860.59;;;3.08;100.00
3122;BME280;1571;52.524;14.104;2023-02-03T06:34:21;100860.28;;;3.19;100.00
3122;BME280;1571;52.524;14.104;2023-02-03T06:36:50;100870.28;;;3.36;100.00
3122;BME280;1571;52.524;14.104;2023-02-03T06:39:19;100867.66;;;3.36;100.00
3122;BME280;1571;52.524;14.104;2023-02-03T06:41:48;100861.75;;;3.58;100.00
3122;BME280;1571;52.524;14.104;2023-02-03T06:44:17;100863.28;;;3.65;100.00
3122;BME280;1571;52.524;14.104;2023-02-03T06:46:45;100871.75;;;3.73;100.00
3122;BME280;1571;52.524;14.104;2023-02-03T06:49:14;100868.94;;;3.79;100.00
3122;BME280;1571;52.524;14.104;2023-02-03T06:51:43;100859.84;;;3.89;100.00
3122;BME280;1571;52.524;14.104;2023-02-03T06:54:13;100861.25;;;4.00;100.00
3122;BME280;1571;52.524;14.104;2023-02-03T06:56:41;100851.38;;;4.08;100.00
3122;BME280;1571;52.524;14.104;2023-02-03T06:59:09;100857.31;;;4.13;100.00
3122;BME280;1571;52.524;14.104;2023-02-03T07:01:38;100845.56;;;4.23;100.00
3122;BME280;1571;52.524;14.104;2023-02-03T07:04:06;100851.25;;;4.36;100.00
3122;BME280;1571;52.524;14.104;2023-02-03T07:06:34;100848.38;;;4.44;100.00
3122;BME280;1571;52.524;14.104;2023-02-03T07:09:04;100848.28;;;4.47;100.00
3122;BME280;1571;52.524;14.104;2023-02-03T07:11:33;100849.06;;;4.49;100.00
3122;BME280;1571;52.524;14.104;2023-02-03T07:14:02;100844.25;;;4.62;100.00
3122;BME280;1571;52.524;14.104;2023-02-03T07:16:30;100838.81;;;4.66;100.00
3122;BME280;1571;52.524;14.104;2023-02-03T07:19:00;100835.91;;;4.74;100.00
3122;BME280;1571;52.524;14.104;2023-02-03T07:21:28;100829.41;;;4.84;100.00
3122;BME280;1571;52.524;14.104;2023-02-03T07:23:56;100829.16;;;4.90;100.00
3122;BME280;1571;52.524;14.104;2023-02-03T07:26:25;100811.47;;;4.94;100.00
3122;BME280;1571;52.524;14.104;2023-02-03T07:28:54;100817.19;;;5.05;100.00
3122;BME280;1571;52.524;14.104;2023-02-03T07:31:26;100804.84;;;5.07;100.00
3122;BME280;1571;52.524;14.104;2023-02-03T07:33:54;100806.97;;;5.19;100.00
3122;BME280;1571;52.524;14.104;2023-02-03T07:36:22;100796.00;;;5.08;100.00
3122;BME280;1571;52.524;14.104;2023-02-03T07:38:51;100801.91;;;5.15;100.00
3122;BME280;1571;52.524;14.104;2023-02-03T07:41:19;100790.16;;;5.24;100.00
3122;BME280;1571;52.524;14.104;2023-02-03T07:43:47;100793.44;;;5.29;100.00
3122;BME280;1571;52.524;14.104;2023-02-03T07:46:17;100791.38;;;5.37;100.00
3122;BME280;1571;52.524;14.104;2023-02-03T07:48:45;100778.59;;;5.28;100.00
3122;BME280;1571;52.524;14.104;2023-02-03T07:51:13;100786.78;;;5.42;100.00
3122;BME280;1571;52.524;14.104;2023-02-03T07:53:41;100785.59;;;5.49;100.00
3122;BME280;1571;52.524;14.104;2023-02-03T07:56:10;100790.63;;;5.55;100.00
3122;BME280;1571;52.524;14.104;2023-02-03T07:58:38;100783.72;;;5.53;100.00
3122;BME280;1571;52.524;14.104;2023-02-03T08:01:11;100776.44;;;5.59;100.00
3122;BME280;1571;52.524;14.104;2023-02-03T08:03:41;100772.63;;;5.67;100.00
3122;BME280;1571;52.524;14.104;2023-02-03T08:06:10;100771.75;;;5.66;100.00
3122;BME280;1571;52.524;14.104;2023-02-03T08:08:38;100761.09;;;5.69;100.00
3122;BME280;1571;52.524;14.104;2023-02-03T08:11:07;100768.88;;;5.72;100.00
3122;BME280;1571;52.524;14.104;2023-02-03T08:13:35;100754.59;;;5.78;100.00
3122;BME280;1571;52.524;14.104;2023-02-03T08:16:04;100748.59;;;5.74;100.00
3122;BME280;1571;52.524;14.104;2023-02-03T08:18:33;100740.38;;;5.82;100.00
3122;BME280;1571;52.524;14.104;2023-02-03T08:21:03;100728.00;;;5.84;100.00
3122;BME280;1571;52.524;14.104;2023-02-03T08:23:31;100724.31;;;5.88;100.00
3122;BME280;1571;52.524;14.104;2023-02-03T08:26:00;100714.63;;;5.89;100.00
3122;BME280;1571;52.524;14.104;2023-02-03T08:28:29;100715.47;;;5.89;100.00
3122;BME280;1571;52.524;14.104;2023-02-03T08:30:58;100700.34;;;5.94;100.00
3122;BME280;1571;52.524;14.104;2023-02-03T08:33:26;100695.13;;;5.93;100.00
3122;BME280;1571;52.524;14.104;2023-02-03T08:35:55;100692.22;;;5.99;100.00
3122;BME280;1571;52.524;14.104;2023-02-03T08:38:26;100690.47;;;5.99;100.00
3122;BME280;1571;52.524;14.104;2023-02-03T08:40:54;100693.16;;;5.98;100.00
3122;BME280;1571;52.524;14.104;2023-02-03T08:43:22;100689.78;;;5.94;100.00
3122;BME280;1571;52.524;14.104;2023-02-03T08:45:50;100675.81;;;5.92;100.00
3122;BME280;1571;52.524;14.104;2023-02-03T08:48:19;100670.47;;;5.94;100.00
3122;BME280;1571;52.524;14.104;2023-02-03T08:50:47;100667.66;;;5.98;100.00
3122;BME280;1571;52.524;14.104;2023-02-03T08:53:18;100658.97;;;5.96;100.00
3122;BME280;1571;52.524;14.104;2023-02-03T08:55:48;100656.22;;;5.99;100.00
3122;BME280;1571;52.524;14.104;2023-02-03T08:58:16;100649.88;;;6.03;100.00
3122;BME280;1571;52.524;14.104;2023-02-03T09:00:44;100651.72;;;6.01;100.00
3122;BME280;1571;52.524;14.104;2023-02-03T09:03:15;100653.44;;;6.02;100.00
3122;BME280;1571;52.524;14.104;2023-02-03T09:05:44;100640.09;;;6.05;100.00
3122;BME280;1571;52.524;14.104;2023-02-03T09:08:12;100638.41;;;6.04;100.00
3122;BME280;1571;52.524;14.104;2023-02-03T09:10:40;100626.84;;;6.07;100.00
3122;BME280;1571;52.524;14.104;2023-02-03T09:13:09;100624.28;;;6.05;100.00
3122;BME280;1571;52.524;14.104;2023-02-03T09:15:38;100616.91;;;6.14;100.00
3122;BME280;1571;52.524;14.104;2023-02-03T09:18:06;100616.91;;;6.14;100.00
3122;BME280;1571;52.524;14.104;2023-02-03T09:20:34;100602.72;;;6.16;100.00
3122;BME280;1571;52.524;14.104;2023-02-03T09:23:03;100597.22;;;6.21;100.00
3122;BME280;1571;52.524;14.104;2023-02-03T09:25:32;100600.03;;;6.18;100.00
3122;BME280;1571;52.524;14.104;2023-02-03T09:28:01;100586.78;;;6.19;100.00
3122;BME280;1571;52.524;14.104;2023-02-03T09:30:30;100584.19;;;6.18;100.00
3122;BME280;1571;52.524;14.104;2023-02-03T09:32:59;100575.84;;;6.27;100.00
3122;BME280;1571;52.524;14.104;2023-02-03T09:35:27;100565.47;;;6.24;100.00
3122;BME280;1571;52.524;14.104;2023-02-03T09:37:57;100557.34;;;6.29;100.00
3122;BME280;1571;52.524;14.104;2023-02-03T09:40:30;100561.44;;;6.34;100.00
3122;BME280;1571;52.524;14.104;2023-02-03T09:43:11;100550.91;;;6.34;100.00
3122;BME280;1571;52.524;14.104;2023-02-03T09:45:43;100539.44;;;6.35;100.00
3122;BME280;1571;52.524;14.104;2023-02-03T09:48:14;100550.78;;;6.37;100.00
3122;BME280;1571;52.524;14.104;2023-02-03T09:50:44;100542.72;;;6.40;100.00
3122;BME280;1571;52.524;14.104;2023-02-03T09:53:22;100530.16;;;6.45;100.00
3122;BME280;1571;52.524;14.104;2023-02-03T09:55:54;100525.81;;;6.44;100.00
3122;BME280;1571;52.524;14.104;2023-02-03T09:58:22;100515.03;;;6.49;100.00
3122;BME280;1571;52.524;14.104;2023-02-03T10:00:55;100512.53;;;6.46;100.00
3122;BME280;1571;52.524;14.104;2023-02-03T10:03:31;100509.91;;;6.46;100.00
3122;BME280;1571;52.524;14.104;2023-02-03T10:06:11;100510.91;;;6.43;100.00
3122;BME280;1571;52.524;14.104;2023-02-03T10:08:54;100501.75;;;6.51;100.00
3122;BME280;1571;52.524;14.104;2023-02-03T10:11:38;100495.41;;;6.55;100.00
3122;BME280;1571;52.524;14.104;2023-02-03T10:14:20;100489.84;;;6.61;100.00
3122;BME280;1571;52.524;14.104;2023-02-03T10:17:06;100491.63;;;6.60;100.00
3122;BME280;1571;52.524;14.104;2023-02-03T10:19:43;100481.91;;;6.61;100.00
3122;BME280;1571;52.524;14.104;2023-02-03T10:22:16;100492.63;;;6.58;100.00
3122;BME280;1571;52.524;14.104;2023-02-03T10:24:48;100498.53;;;6.63;100.00
3122;BME280;1571;52.524;14.104;2023-02-03T10:27:21;100487.19;;;6.61;100.00
3122;BME280;1571;52.524;14.104;2023-02-03T10:29:55;100495.72;;;6.66;100.00
3122;BME280;1571;52.524;14.104;2023-02-03T10:32:26;100494.16;;;6.62;100.00
3122;BME280;1571;52.524;14.104;2023-02-03T10:34:55;100487.03;;;6.64;100.00
3122;BME280;1571;52.524;14.104;2023-02-03T10:37:27;100491.47;;;6.63;100.00
3122;BME280;1571;52.524;14.104;2023-02-03T10:39:58;100491.22;;;6.68;100.00
3122;BME280;1571;52.524;14.104;2023-02-03T10:42:29;100506.53;;;6.79;100.00
3122;BME280;1571;52.524;14.104;2023-02-03T10:45:19;100500.78;;;6.88;100.00
3122;BME280;1571;52.524;14.104;2023-02-03T10:47:50;100497.91;;;6.93;100.00
3122;BME280;1571;52.524;14.104;2023-02-03T10:50:21;100501.31;;;6.95;100.00
3122;BME280;1571;52.524;14.104;2023-02-03T10:52:50;100505.44;;;7.00;100.00
3122;BME280;1571;52.524;14.104;2023-02-03T10:55:30;100496.13;;;6.93;100.00
3122;BME280;1571;52.524;14.104;2023-02-03T10:58:09;100487.66;;;6.86;100.00
3122;BME280;1571;52.524;14.104;2023-02-03T11:00:42;100493.41;;;6.77;100.00
3122;BME280;1571;52.524;14.104;2023-02-03T11:03:21;100495.03;;;6.62;100.00
3122;BME280;1571;52.524;14.104;2023-02-03T11:06:09;100484.53;;;6.43;100.00
3122;BME280;1571;52.524;14.104;2023-02-03T11:08:39;100461.56;;;6.28;100.00
3122;BME280;1571;52.524;14.104;2023-02-03T11:11:12;100463.22;;;6.12;100.00
3122;BME280;1571;52.524;14.104;2023-02-03T11:13:41;100451.84;;;6.11;100.00
3122;BME280;1571;52.524;14.104;2023-02-03T11:16:12;100457.84;;;6.15;100.00
3122;BME280;1571;52.524;14.104;2023-02-03T11:18:46;100455.53;;;6.26;100.00
3122;BME280;1571;52.524;14.104;2023-02-03T11:21:20;100458.78;;;6.31;100.00
3122;BME280;1571;52.524;14.104;2023-02-03T11:24:00;100437.81;;;6.28;100.00
3122;BME280;1571;52.524;14.104;2023-02-03T11:26:31;100422.78;;;6.13;100.00
3122;BME280;1571;52.524;14.104;2023-02-03T11:29:04;100421.34;;;6.05;100.00
3122;BME280;1571;52.524;14.104;2023-02-03T11:31:35;100414.56;;;6.01;100.00
3122;BME280;1571;52.524;14.104;2023-02-03T11:34:13;100417.31;;;5.98;100.00
3122;BME280;1571;52.524;14.104;2023-02-03T11:36:43;100409.28;;;6.01;100.00
3122;BME280;1571;52.524;14.104;2023-02-03T11:39:20;100390.97;;;5.98;100.00
3122;BME280;1571;52.524;14.104;2023-02-03T11:41:50;100377.16;;;5.93;100.00
3122;BME280;1571;52.524;14.104;2023-02-03T11:44:22;100374.50;;;5.93;100.00
3122;BME280;1571;52.524;14.104;2023-02-03T11:46:55;100371.75;;;5.96;100.00
3122;BME280;1571;52.524;14.104;2023-02-03T11:49:41;100382.31;;;6.14;100.00
3122;BME280;1571;52.524;14.104;2023-02-03T11:52:30;100358.59;;;6.31;100.00
3122;BME280;1571;52.524;14.104;2023-02-03T11:55:09;100339.13;;;6.51;100.00
3122;BME280;1571;52.524;14.104;2023-02-03T11:57:45;100342.06;;;6.62;100.00
3122;BME280;1571;52.524;14.104;2023-02-03T12:00:24;100322.09;;;6.74;100.00
3122;BME280;1571;52.524;14.104;2023-02-03T12:03:16;100302.94;;;6.86;100.00
3122;BME280;1571;52.524;14.104;2023-02-03T12:05:58;100288.25;;;6.82;100.00
3122;BME280;1571;52.524;14.104;2023-02-03T12:08:44;100284.41;;;6.88;100.00
3122;BME280;1571;52.524;14.104;2023-02-03T12:11:22;100295.16;;;7.01;100.00
3122;BME280;1571;52.524;14.104;2023-02-03T12:14:05;100294.47;;;7.13;100.00
3122;BME280;1571;52.524;14.104;2023-02-03T12:19:53;100270.94;;;6.93;100.00
3122;BME280;1571;52.524;14.104;2023-02-03T12:22:32;100298.88;;;6.97;100.00
3122;BME280;1571;52.524;14.104;2023-02-03T12:25:17;100292.75;;;6.96;100.00
3122;BME280;1571;52.524;14.104;2023-02-03T12:27:53;100290.19;;;6.95;100.00
3122;BME280;1571;52.524;14.104;2023-02-03T12:30:31;100280.31;;;6.82;100.00
3122;BME280;1571;52.524;14.104;2023-02-03T12:33:05;100288.66;;;6.91;100.00
3122;BME280;1571;52.524;14.104;2023-02-03T12:35:45;100271.78;;;6.93;100.00
3122;BME280;1571;52.524;14.104;2023-02-03T12:38:27;100277.78;;;6.97;100.00
3122;BME280;1571;52.524;14.104;2023-02-03T12:41:00;100270.69;;;7.13;100.00
3122;BME280;1571;52.524;14.104;2023-02-03T12:43:34;100280.34;;;7.30;98.91
3122;BME280;1571;52.524;14.104;2023-02-03T12:46:09;100268.56;;;7.36;97.72
3122;BME280;1571;52.524;14.104;2023-02-03T12:48:50;100269.19;;;7.41;96.47
3122;BME280;1571;52.524;14.104;2023-02-03T12:51:30;100272.75;;;7.40;96.70
3122;BME280;1571;52.524;14.104;2023-02-03T12:54:14;100284.75;;;7.45;95.62
3122;BME280;1571;52.524;14.104;2023-02-03T12:56:46;100291.03;;;7.43;96.09
3122;BME280;1571;52.524;14.104;2023-02-03T12:59:21;100285.25;;;7.36;95.47
3122;BME280;1571;52.524;14.104;2023-02-03T13:01:55;100309.13;;;7.19;94.57
3122;BME280;1571;52.524;14.104;2023-02-03T13:04:32;100317.94;;;6.53;96.38
3122;BME280;1571;52.524;14.104;2023-02-03T13:07:06;100353.41;;;5.76;98.87
3122;BME280;1571;52.524;14.104;2023-02-03T13:09:40;100367.38;;;5.40;99.94
3122;BME280;1571;52.524;14.104;2023-02-03T13:12:13;100351.47;;;5.24;100.00
3122;BME280;1571;52.524;14.104;2023-02-03T13:14:46;100350.09;;;5.15;100.00
3122;BME280;1571;52.524;14.104;2023-02-03T13:17:21;100358.31;;;5.09;100.00
3122;BME280;1571;52.524;14.104;2023-02-03T13:19:54;100370.41;;;4.93;100.00
3122;BME280;1571;52.524;14.104;2023-02-03T13:22:23;100372.81;;;4.78;100.00
3122;BME280;1571;52.524;14.104;2023-02-03T13:24:58;100394.84;;;4.76;100.00
3122;BME280;1571;52.524;14.104;2023-02-03T13:27:43;100391.88;;;4.84;100.00